الصفحة الرئيسية
METAR-TAF:

METAR-TAF

مطار :

Tak, تايلاند

دائرة عرض: 16-53N, خط طول: 099-09E, ارتفاع: 121 متر

METAR: مفقودة

زمن: 05:08 (22:08 UTC)

توقعات

تاريخ ووقت الإصدار 5ساعات و 8 دقيقة قبل الساعة 17:00UTC
التوقعات صالحة من02 الساعة 18 UTC إلى 03 الساعة 18 UTC
ريح 5 عقدة من الغرب/الجنوب الغربي
الرؤية 10 كم أو أكثر
غيوم متفرقة على ارتفاع 2500 قدم
مؤقت
من 03 الساعة 08 UTC إلى 03 الساعة 13 UTC
ريح 15 عقدة من الغرب تتزايد حتى 30 عقدة
الرؤية: 4000 متر
غيوم قليلة على ارتفاع 1800 قدم, مزنة ركامية.
غيوم مفككة على ارتفاع 2500 قدم
عاصفة رعدية, مطر

TAF: VTPT 021700Z 0218/0318 24005KT 9999 SCT025 TEMPO 0308/0313 26015G30KT 4000 TSRA FEW018CB BKN025

أرصاد الطقس والتوقعات من أكثر من 4000 مطار (تقارير الطقس للمطار METAR والتنبؤ بالطقس بالمطارTAF).

المحطات المتاحة هي النقط الصفراء والحمراء على الخريطة.

حرك المؤشر فوق النقطة لمعرفة اسم المحطة.

ثم انقر لمعرفة أرصاد وتوقعات الطقس.

لتغيير الخارطة: اضغط على الأزرار الخضراء مع رمز الصليب الأسود للتكبير. على الزر الأخضر مع شرطة للتصغير، أو على الأسهم الخضراء للخرائط المجاورة.


METAR-TAF: